createdAt,value
2022-09-28T00:01:09.271Z,80.07
2022-09-28T00:03:37.175Z,80.06
2022-09-28T00:06:06.850Z,80.22
2022-09-28T00:08:35.436Z,80.83
2022-09-28T00:11:04.638Z,80.50
2022-09-28T00:13:33.528Z,80.26
2022-09-28T00:16:06.234Z,80.28
2022-09-28T00:18:35.530Z,80.38
2022-09-28T00:21:12.336Z,80.23
2022-09-28T00:24:00.845Z,80.18
2022-09-28T00:26:30.148Z,80.12
2022-09-28T00:28:59.371Z,80.73
2022-09-28T00:31:28.304Z,81.97
2022-09-28T00:34:00.616Z,83.14
2022-09-28T00:36:29.563Z,83.65
2022-09-28T00:38:58.193Z,83.59
2022-09-28T00:41:27.355Z,83.16
2022-09-28T00:44:15.245Z,83.09
2022-09-28T00:46:43.220Z,82.93
2022-09-28T00:49:14.889Z,83.19
2022-09-28T00:51:44.976Z,83.31
2022-09-28T00:54:14.944Z,83.89
2022-09-28T00:56:44.810Z,84.16
2022-09-28T00:59:13.284Z,83.84
2022-09-28T01:01:41.328Z,83.59
2022-09-28T01:04:10.258Z,84.04
2022-09-28T01:06:39.254Z,84.05
2022-09-28T01:09:08.767Z,84.54
2022-09-28T01:11:37.932Z,84.11
2022-09-28T01:14:08.849Z,84.04
2022-09-28T01:16:46.039Z,83.30
2022-09-28T01:19:42.714Z,83.00
2022-09-28T01:22:29.136Z,83.08
2022-09-28T01:25:17.402Z,83.49
2022-09-28T01:27:51.906Z,84.02
2022-09-28T01:30:21.391Z,83.87
2022-09-28T01:32:58.703Z,83.49
2022-09-28T01:35:33.712Z,83.37
2022-09-28T01:38:12.257Z,84.24
2022-09-28T01:40:41.312Z,84.22
2022-09-28T01:43:18.028Z,84.52
2022-09-28T01:45:51.602Z,83.70
2022-09-28T01:48:24.315Z,83.75
2022-09-28T01:50:55.717Z,83.96
2022-09-28T01:53:33.054Z,84.04
2022-09-28T01:56:07.645Z,83.90
2022-09-28T01:58:39.340Z,83.34
2022-09-28T02:01:13.491Z,82.68
2022-09-28T02:03:47.118Z,83.41
2022-09-28T02:06:18.781Z,83.14
2022-09-28T02:08:54.049Z,82.53
2022-09-28T02:11:23.440Z,82.62
2022-09-28T02:14:05.770Z,82.77
2022-09-28T02:16:39.999Z,82.93
2022-09-28T02:19:17.598Z,83.55
2022-09-28T02:21:51.805Z,83.57
2022-09-28T02:24:24.692Z,84.05
2022-09-28T02:26:55.320Z,83.47
2022-09-28T02:29:23.742Z,83.56
2022-09-28T02:31:52.350Z,83.99
2022-09-28T02:34:20.589Z,83.71
2022-09-28T02:36:48.636Z,83.27
2022-09-28T02:39:18.095Z,83.43
2022-09-28T02:41:46.445Z,84.93
2022-09-28T02:44:40.573Z,84.11
2022-09-28T02:47:22.058Z,83.55
2022-09-28T02:49:53.868Z,83.49
2022-09-28T02:52:27.973Z,83.58
2022-09-28T02:54:59.013Z,83.70
2022-09-28T02:57:45.726Z,84.31
2022-09-28T03:00:23.935Z,83.95
2022-09-28T03:03:10.953Z,85.03
2022-09-28T03:05:47.423Z,85.83
2022-09-28T03:08:27.979Z,85.64
2022-09-28T03:11:01.351Z,85.62
2022-09-28T03:13:30.399Z,85.91
2022-09-28T03:16:08.716Z,86.63
2022-09-28T03:18:36.953Z,86.72
2022-09-28T03:21:05.596Z,87.74
2022-09-28T03:23:34.248Z,86.78
2022-09-28T03:26:02.493Z,87.48
2022-09-28T03:28:31.008Z,86.42
2022-09-28T03:30:59.187Z,85.82
2022-09-28T03:33:27.374Z,85.54
2022-09-28T03:35:55.435Z,85.66
2022-09-28T03:38:24.462Z,85.41
2022-09-28T03:40:53.512Z,85.26
2022-09-28T03:43:22.109Z,85.55
2022-09-28T03:45:57.976Z,85.73
2022-09-28T03:48:32.751Z,85.51
2022-09-28T03:51:03.027Z,83.94
2022-09-28T03:53:31.378Z,83.52
2022-09-28T03:56:17.718Z,82.42
2022-09-28T03:58:45.794Z,81.70
2022-09-28T04:01:17.519Z,81.03
2022-09-28T04:03:47.452Z,80.49
2022-09-28T04:06:15.640Z,79.62
2022-09-28T04:08:43.699Z,79.50
2022-09-28T04:11:12.134Z,79.77
2022-09-28T04:13:40.072Z,79.30
2022-09-28T04:16:12.081Z,78.88
2022-09-28T04:18:44.033Z,78.21
2022-09-28T04:21:16.796Z,77.99
2022-09-28T04:23:53.149Z,78.01
2022-09-28T04:26:26.432Z,77.90
2022-09-28T04:29:13.302Z,78.01
2022-09-28T04:31:45.992Z,77.75
2022-09-28T04:34:17.795Z,77.85
2022-09-28T04:36:46.676Z,77.47
2022-09-28T04:39:15.941Z,77.46
2022-09-28T04:41:48.184Z,77.09
2022-09-28T04:44:16.945Z,77.36
2022-09-28T04:46:46.751Z,77.63
2022-09-28T04:49:29.721Z,77.87
2022-09-28T04:52:00.021Z,77.92
2022-09-28T04:54:27.966Z,77.98
2022-09-28T04:56:58.299Z,77.94
2022-09-28T04:59:26.476Z,77.54
2022-09-28T05:01:54.590Z,77.44
2022-09-28T05:04:52.317Z,76.84
2022-09-28T05:07:46.218Z,75.53
2022-09-28T05:10:14.372Z,74.81
2022-09-28T05:12:43.021Z,74.71
2022-09-28T05:15:12.195Z,74.97
2022-09-28T05:17:40.069Z,75.27
2022-09-28T05:20:20.915Z,75.26
2022-09-28T05:22:49.402Z,75.65
2022-09-28T05:25:18.530Z,75.26
2022-09-28T05:28:05.498Z,75.14
2022-09-28T05:31:03.780Z,75.44
2022-09-28T05:33:52.138Z,74.84
2022-09-28T05:36:20.408Z,74.69
2022-09-28T05:38:48.381Z,75.07
2022-09-28T05:41:17.192Z,75.47
2022-09-28T05:43:45.912Z,75.95
2022-09-28T05:46:14.977Z,75.37
2022-09-28T05:48:43.189Z,74.90
2022-09-28T05:51:12.435Z,75.17
2022-09-28T05:53:40.402Z,75.07
2022-09-28T05:56:08.681Z,75.28
2022-09-28T05:58:39.328Z,74.27
2022-09-28T06:01:07.611Z,73.61
2022-09-28T06:03:35.791Z,73.55
2022-09-28T06:06:04.969Z,73.64
2022-09-28T06:08:33.190Z,73.15
2022-09-28T06:11:28.403Z,73.61
2022-09-28T06:13:58.897Z,74.20
2022-09-28T06:16:29.979Z,73.74
2022-09-28T06:18:58.013Z,73.14
2022-09-28T06:21:40.411Z,73.38
2022-09-28T06:24:09.234Z,73.12
2022-09-28T06:26:40.347Z,73.88
2022-09-28T06:29:08.701Z,72.58
2022-09-28T06:31:36.799Z,73.20
2022-09-28T06:34:05.181Z,72.16
2022-09-28T06:36:34.004Z,71.37
2022-09-28T06:39:02.198Z,70.52
2022-09-28T06:41:30.526Z,71.01
2022-09-28T06:44:02.256Z,70.36
2022-09-28T06:46:48.895Z,70.77
2022-09-28T06:49:47.910Z,71.26
2022-09-28T06:52:49.798Z,70.51
2022-09-28T06:55:39.236Z,70.97
2022-09-28T06:58:10.687Z,71.15
2022-09-28T07:00:39.783Z,70.21
2022-09-28T07:03:11.053Z,69.66
2022-09-28T07:06:02.399Z,69.07
2022-09-28T07:09:12.074Z,69.66
2022-09-28T07:12:05.206Z,69.44
2022-09-28T07:14:48.063Z,69.58
2022-09-28T07:17:16.971Z,71.23
2022-09-28T07:19:45.062Z,69.51
2022-09-28T07:22:18.551Z,69.03
2022-09-28T07:24:49.200Z,68.93
2022-09-28T07:27:39.696Z,68.56
2022-09-28T07:30:29.244Z,68.66
2022-09-28T07:33:17.408Z,68.70
2022-09-28T07:35:55.432Z,68.78
2022-09-28T07:38:29.935Z,68.95
2022-09-28T07:41:22.734Z,68.81
2022-09-28T07:43:52.562Z,68.18
2022-09-28T07:46:21.437Z,68.32
2022-09-28T07:48:56.741Z,68.20
2022-09-28T07:51:44.990Z,68.22
2022-09-28T07:54:24.595Z,67.57
2022-09-28T07:57:08.065Z,67.36
2022-09-28T07:59:48.016Z,67.33
2022-09-28T08:02:35.670Z,67.15
2022-09-28T08:05:04.851Z,66.60
2022-09-28T08:07:34.696Z,65.74
2022-09-28T08:10:06.118Z,66.23
2022-09-28T08:13:09.620Z,65.46
2022-09-28T08:15:53.798Z,65.85
2022-09-28T08:18:35.259Z,65.78
2022-09-28T08:21:22.587Z,64.71
2022-09-28T08:23:51.298Z,64.98
2022-09-28T08:26:19.346Z,64.84
2022-09-28T08:28:48.239Z,64.45
2022-09-28T08:31:48.827Z,64.33
2022-09-28T08:34:32.516Z,64.13
2022-09-28T08:37:24.688Z,64.47
2022-09-28T08:40:19.183Z,62.46
2022-09-28T08:43:39.867Z,63.76
2022-09-28T08:46:36.107Z,63.94
2022-09-28T08:49:51.511Z,62.53
2022-09-28T08:52:30.092Z,62.68
2022-09-28T08:55:29.201Z,63.70
2022-09-28T08:58:17.817Z,64.13
2022-09-28T09:00:48.861Z,65.04
2022-09-28T09:03:21.162Z,65.14
2022-09-28T09:06:15.277Z,65.15
2022-09-28T09:09:18.213Z,64.37
2022-09-28T09:12:12.964Z,64.23
2022-09-28T09:15:01.168Z,63.91
2022-09-28T09:17:36.120Z,62.98
2022-09-28T09:20:34.401Z,62.90
2022-09-28T09:23:40.221Z,62.52
2022-09-28T09:26:15.997Z,62.52
2022-09-28T09:28:58.016Z,61.64
2022-09-28T09:31:37.465Z,61.07
2022-09-28T09:34:06.892Z,59.82
2022-09-28T09:40:56.140Z,58.43
2022-09-28T09:43:47.320Z,58.26
2022-09-28T09:46:41.009Z,58.38
2022-09-28T09:49:36.097Z,58.60
2022-09-28T09:52:15.399Z,57.27
2022-09-28T09:54:46.752Z,53.98
2022-09-28T09:57:30.718Z,54.71
2022-09-28T10:00:12.232Z,52.15
2022-09-28T10:02:49.220Z,53.98
2022-09-28T10:05:28.088Z,52.76
2022-09-28T10:07:56.469Z,52.73
2022-09-28T10:10:30.185Z,51.99
2022-09-28T10:13:08.934Z,51.01
2022-09-28T10:15:37.526Z,49.10
2022-09-28T10:18:25.990Z,51.44
2022-09-28T10:20:53.912Z,50.71
2022-09-28T10:23:34.143Z,51.04
2022-09-28T10:26:15.176Z,49.45
2022-09-28T10:28:47.721Z,48.41
2022-09-28T10:31:35.764Z,48.86
2022-09-28T10:34:05.312Z,47.12
2022-09-28T10:36:38.871Z,46.10
2022-09-28T10:39:21.570Z,44.91
2022-09-28T10:41:50.793Z,45.14
2022-09-28T10:44:23.164Z,45.16
2022-09-28T10:47:03.522Z,43.17
2022-09-28T10:49:46.975Z,42.43
2022-09-28T10:52:29.102Z,41.58
2022-09-28T10:54:57.415Z,42.73
2022-09-28T10:57:36.692Z,43.78
2022-09-28T11:00:27.490Z,43.04
2022-09-28T11:03:26.666Z,44.19
2022-09-28T11:05:57.750Z,44.41
2022-09-28T11:08:28.435Z,43.28
2022-09-28T11:11:09.033Z,43.32
2022-09-28T11:14:01.483Z,43.71
2022-09-28T11:16:34.360Z,43.95
2022-09-28T11:19:18.042Z,44.70
2022-09-28T11:21:46.310Z,43.67
2022-09-28T11:24:19.284Z,44.92
2022-09-28T11:26:50.239Z,45.87
2022-09-28T11:29:31.521Z,46.33
2022-09-28T11:32:22.022Z,47.43
2022-09-28T11:35:36.865Z,47.37
2022-09-28T11:38:20.692Z,47.06
2022-09-28T11:41:10.289Z,47.11
2022-09-28T11:43:38.603Z,46.81
2022-09-28T11:46:10.315Z,45.98
2022-09-28T11:48:44.184Z,44.78
2022-09-28T11:51:17.058Z,44.70
2022-09-28T11:53:50.520Z,46.24
2022-09-28T11:56:37.448Z,44.85
2022-09-28T11:59:15.461Z,44.71
2022-09-28T12:01:47.059Z,46.30
2022-09-28T12:04:21.522Z,45.80
2022-09-28T12:07:15.856Z,46.62
2022-09-28T12:09:53.646Z,46.28
2022-09-28T12:12:32.947Z,45.55
2022-09-28T12:15:14.949Z,44.45
2022-09-28T12:17:45.705Z,44.29
2022-09-28T12:20:20.052Z,43.73
2022-09-28T12:22:50.753Z,44.32
2022-09-28T12:25:21.376Z,43.46
2022-09-28T12:27:55.782Z,43.51
2022-09-28T12:30:27.895Z,43.25
2022-09-28T12:33:05.152Z,43.30
2022-09-28T12:35:39.998Z,43.10
2022-09-28T12:38:26.900Z,42.44
2022-09-28T12:41:13.304Z,43.22
2022-09-28T12:43:49.773Z,41.64
2022-09-28T12:46:36.903Z,42.02
2022-09-28T12:52:25.380Z,43.12
2022-09-28T12:55:12.074Z,42.96
2022-09-28T12:57:43.301Z,43.02
2022-09-28T13:00:25.400Z,42.03
2022-09-28T13:02:59.805Z,42.56
2022-09-28T13:06:00.896Z,40.71
2022-09-28T13:08:31.924Z,41.58
2022-09-28T13:11:07.029Z,42.61
2022-09-28T13:14:01.897Z,43.84
2022-09-28T13:16:38.144Z,42.73
2022-09-28T13:19:06.259Z,43.17
2022-09-28T13:21:53.108Z,43.13
2022-09-28T13:24:32.709Z,43.16
2022-09-28T13:27:10.990Z,42.96
2022-09-28T13:32:14.008Z,43.67
2022-09-28T13:34:42.685Z,44.26
2022-09-28T13:37:26.426Z,44.93
2022-09-28T13:39:56.616Z,44.84
2022-09-28T13:42:47.761Z,45.65
2022-09-28T13:45:21.572Z,45.47
2022-09-28T13:48:01.967Z,45.79
2022-09-28T13:50:30.317Z,45.14
2022-09-28T13:53:12.724Z,45.87
2022-09-28T13:55:51.344Z,46.22
2022-09-28T13:58:28.210Z,46.60
2022-09-28T14:01:02.193Z,46.67
2022-09-28T14:03:49.150Z,46.99
2022-09-28T14:06:26.549Z,47.08
2022-09-28T14:09:13.155Z,47.19
2022-09-28T14:11:54.639Z,47.23
2022-09-28T14:14:26.882Z,47.04
2022-09-28T14:17:14.200Z,46.50
2022-09-28T14:19:42.726Z,46.30
2022-09-28T14:22:10.611Z,47.05
2022-09-28T14:24:45.281Z,46.85
2022-09-28T14:27:13.497Z,46.54
2022-09-28T14:29:41.889Z,46.60
2022-09-28T14:32:09.845Z,47.18
2022-09-28T14:34:41.657Z,47.30
2022-09-28T14:37:38.146Z,47.22
2022-09-28T14:40:37.095Z,47.81
2022-09-28T14:43:26.949Z,47.67
2022-09-28T14:46:19.985Z,47.56
2022-09-28T14:48:51.155Z,47.75
2022-09-28T14:51:26.477Z,48.37
2022-09-28T14:53:55.561Z,48.18
2022-09-28T14:56:25.435Z,48.16
2022-09-28T14:58:57.355Z,48.60
2022-09-28T15:01:26.140Z,48.73
2022-09-28T15:03:59.694Z,48.25
2022-09-28T15:06:43.552Z,48.09
2022-09-28T15:09:29.889Z,47.65
2022-09-28T15:12:18.237Z,48.39
2022-09-28T15:15:05.768Z,48.66
2022-09-28T15:17:39.942Z,48.43
2022-09-28T15:20:30.285Z,49.12
2022-09-28T15:22:59.267Z,49.27
2022-09-28T15:25:28.433Z,49.48
2022-09-28T15:27:58.188Z,49.45
2022-09-28T15:30:28.021Z,49.55
2022-09-28T15:33:16.962Z,50.03
2022-09-28T15:35:50.404Z,50.65
2022-09-28T15:38:18.578Z,51.63
2022-09-28T15:40:47.811Z,52.32
2022-09-28T15:43:27.009Z,52.61
2022-09-28T15:46:13.548Z,52.48
2022-09-28T15:48:52.916Z,53.04
2022-09-28T15:51:22.291Z,52.57
2022-09-28T15:54:03.142Z,52.26
2022-09-28T15:56:32.198Z,52.17
2022-09-28T15:59:15.638Z,52.17
2022-09-28T16:01:44.469Z,52.53
2022-09-28T16:04:31.431Z,52.99
2022-09-28T16:07:18.871Z,53.31
2022-09-28T16:10:06.428Z,53.53
2022-09-28T16:12:37.739Z,56.64
2022-09-28T16:15:21.281Z,57.14
2022-09-28T16:18:00.817Z,56.58
2022-09-28T16:20:36.495Z,59.86
2022-09-28T16:23:16.835Z,58.34
2022-09-28T16:25:51.916Z,60.58
2022-09-28T16:28:30.425Z,60.60
2022-09-28T16:31:01.936Z,61.68
2022-09-28T16:33:38.414Z,62.89
2022-09-28T16:36:11.296Z,61.48
2022-09-28T16:38:39.302Z,63.07
2022-09-28T16:41:08.976Z,64.08
2022-09-28T16:43:37.255Z,63.58
2022-09-28T16:46:09.364Z,65.30
2022-09-28T16:48:41.497Z,65.60
2022-09-28T16:51:09.461Z,66.52
2022-09-28T16:53:56.174Z,66.97
2022-09-28T16:56:24.279Z,68.91
2022-09-28T16:58:52.263Z,67.76
2022-09-28T17:01:21.100Z,67.95
2022-09-28T17:03:50.328Z,65.85
2022-09-28T17:06:19.817Z,66.04
2022-09-28T17:08:48.197Z,68.60
2022-09-28T17:11:22.700Z,69.05
2022-09-28T17:13:52.227Z,69.51
2022-09-28T17:16:32.580Z,70.13
2022-09-28T17:19:16.398Z,69.99
2022-09-28T17:21:44.468Z,67.63
2022-09-28T17:24:12.440Z,66.65
2022-09-28T17:26:41.370Z,66.23
2022-09-28T17:29:14.439Z,65.98
2022-09-28T17:31:43.459Z,66.12
2022-09-28T17:34:12.534Z,66.52
2022-09-28T17:36:41.343Z,66.85
2022-09-28T17:39:11.473Z,67.50
2022-09-28T17:41:40.358Z,69.78
2022-09-28T17:44:08.857Z,70.42
2022-09-28T17:46:38.764Z,70.99
2022-09-28T17:49:08.061Z,71.34
2022-09-28T17:51:39.513Z,72.66
2022-09-28T17:54:08.362Z,72.92
2022-09-28T17:56:36.852Z,73.14
2022-09-28T17:59:06.394Z,74.16
2022-09-28T18:01:37.984Z,73.80
2022-09-28T18:04:08.380Z,72.75
2022-09-28T18:06:39.686Z,73.03
2022-09-28T18:09:09.441Z,73.41
2022-09-28T18:11:42.575Z,74.00
2022-09-28T18:14:11.408Z,74.65
2022-09-28T18:16:39.483Z,76.05
2022-09-28T18:19:07.591Z,75.19
2022-09-28T18:21:35.539Z,75.20
2022-09-28T18:24:03.575Z,75.37
2022-09-28T18:26:31.503Z,75.42
2022-09-28T18:28:59.558Z,74.51
2022-09-28T18:31:28.129Z,74.99
2022-09-28T18:34:01.154Z,75.56
2022-09-28T18:36:30.031Z,74.37
2022-09-28T18:38:59.769Z,74.33
2022-09-28T18:41:28.517Z,74.64
2022-09-28T18:44:05.509Z,75.61
2022-09-28T18:46:36.894Z,76.31
2022-09-28T18:49:05.247Z,76.82
2022-09-28T18:51:33.311Z,78.00
2022-09-28T18:54:07.555Z,77.32
2022-09-28T18:56:37.485Z,78.61
2022-09-28T18:59:17.410Z,77.11
2022-09-28T19:01:45.496Z,76.45
2022-09-28T19:04:13.752Z,77.32
2022-09-28T19:06:43.049Z,77.87
2022-09-28T19:09:11.440Z,78.03
2022-09-28T19:11:39.310Z,77.82
2022-09-28T19:14:11.207Z,77.19
2022-09-28T19:16:39.166Z,76.85
2022-09-28T19:19:07.205Z,78.18
2022-09-28T19:21:35.575Z,77.91
2022-09-28T19:24:04.169Z,77.21
2022-09-28T19:26:33.166Z,76.99
2022-09-28T19:29:02.932Z,77.33
2022-09-28T19:31:32.092Z,78.06
2022-09-28T19:34:00.212Z,77.69
2022-09-28T19:36:28.837Z,77.91
2022-09-28T19:38:58.055Z,78.79
2022-09-28T19:41:49.651Z,78.52
2022-09-28T19:44:25.250Z,78.22
2022-09-28T19:46:57.427Z,78.68
2022-09-28T19:49:26.901Z,77.23
2022-09-28T19:52:11.722Z,77.81
2022-09-28T19:54:57.405Z,77.72
2022-09-28T19:57:27.842Z,77.57
2022-09-28T20:00:01.646Z,78.31
2022-09-28T20:02:34.022Z,79.07
2022-09-28T20:05:02.284Z,80.27
2022-09-28T20:07:33.189Z,79.80
2022-09-28T20:10:01.383Z,79.83
2022-09-28T20:12:29.724Z,79.82
2022-09-28T20:14:58.072Z,79.51
2022-09-28T20:17:26.178Z,78.98
2022-09-28T20:19:54.137Z,78.65
2022-09-28T20:22:22.146Z,78.52
2022-09-28T20:24:50.203Z,78.71
2022-09-28T20:27:18.369Z,79.41
2022-09-28T20:29:46.343Z,79.65
2022-09-28T20:32:14.304Z,79.23
2022-09-28T20:34:42.300Z,78.67
2022-09-28T20:37:12.609Z,78.44
2022-09-28T20:39:44.771Z,78.48
2022-09-28T20:42:15.741Z,78.04
2022-09-28T20:44:44.035Z,78.60
2022-09-28T20:47:12.113Z,78.72
2022-09-28T20:49:40.265Z,79.35
2022-09-28T20:52:08.318Z,79.59
2022-09-28T20:54:38.157Z,79.88
2022-09-28T20:57:17.715Z,80.42
2022-09-28T20:59:52.156Z,80.24
2022-09-28T21:02:22.676Z,80.13
2022-09-28T21:04:51.031Z,81.99
2022-09-28T21:07:19.288Z,81.29
2022-09-28T21:09:47.503Z,81.28
2022-09-28T21:12:15.544Z,80.68
2022-09-28T21:14:43.664Z,81.64
2022-09-28T21:17:11.593Z,81.06
2022-09-28T21:19:39.756Z,80.93
2022-09-28T21:22:07.777Z,80.13
2022-09-28T21:24:35.903Z,79.57
2022-09-28T21:27:03.945Z,78.94
2022-09-28T21:29:31.952Z,78.55
2022-09-28T21:32:00.429Z,78.82
2022-09-28T21:34:28.425Z,79.25
2022-09-28T21:36:56.372Z,79.10
2022-09-28T21:39:24.389Z,78.69
2022-09-28T21:41:52.311Z,79.60
2022-09-28T21:44:20.481Z,79.93
2022-09-28T21:46:48.668Z,80.31
2022-09-28T21:49:16.738Z,81.50
2022-09-28T21:51:47.311Z,80.76
2022-09-28T21:54:15.559Z,80.65
2022-09-28T21:56:43.495Z,80.19
2022-09-28T21:59:11.511Z,80.62
2022-09-28T22:01:42.825Z,81.83
2022-09-28T22:04:11.324Z,80.29
2022-09-28T22:06:39.975Z,80.93
2022-09-28T22:09:08.388Z,82.72
2022-09-28T22:11:36.903Z,80.85
2022-09-28T22:14:04.843Z,80.61
2022-09-28T22:16:33.167Z,82.25
2022-09-28T22:19:01.718Z,81.35
2022-09-28T22:21:32.033Z,81.16
2022-09-28T22:24:01.444Z,81.09
2022-09-28T22:26:30.330Z,80.62
2022-09-28T22:29:02.627Z,81.10
2022-09-28T22:31:32.257Z,80.88
2022-09-28T22:34:01.000Z,80.15
2022-09-28T22:36:29.226Z,80.71
2022-09-28T22:38:57.978Z,81.90
2022-09-28T22:41:26.145Z,83.14
2022-09-28T22:43:54.882Z,82.45
2022-09-28T22:46:25.281Z,83.02
2022-09-28T22:48:54.952Z,84.32
2022-09-28T22:51:23.678Z,82.90
2022-09-28T22:53:51.628Z,82.89
2022-09-28T22:56:20.008Z,81.94
2022-09-28T22:58:48.084Z,81.95
2022-09-28T23:01:18.054Z,81.66
2022-09-28T23:03:46.072Z,82.38
2022-09-28T23:06:16.672Z,82.60
2022-09-28T23:08:45.549Z,83.22
2022-09-28T23:11:13.885Z,83.36
2022-09-28T23:13:42.020Z,83.39
2022-09-28T23:16:15.007Z,82.85
2022-09-28T23:18:43.772Z,83.24
2022-09-28T23:21:13.132Z,82.76
2022-09-28T23:23:42.154Z,83.61
2022-09-28T23:26:14.092Z,82.85
2022-09-28T23:28:42.679Z,82.67
2022-09-28T23:31:13.670Z,82.80
2022-09-28T23:33:41.897Z,83.70
2022-09-28T23:36:10.038Z,83.46
2022-09-28T23:38:38.576Z,83.63
2022-09-28T23:41:07.036Z,84.17
2022-09-28T23:43:36.295Z,83.92
2022-09-28T23:46:04.971Z,84.10
2022-09-28T23:48:33.146Z,83.77
2022-09-28T23:51:01.532Z,83.77
2022-09-28T23:53:30.183Z,84.33
2022-09-28T23:55:58.574Z,84.14
2022-09-28T23:58:26.725Z,84.25
